sensor_id;sensor_type;location;lat;lon;timestamp;P1;durP1;ratioP1;P2;durP2;ratioP2
64682;SDS011;51107;47.652;19.016;2023-06-14T00:00:00;1.55;;;0.82;;
64682;SDS011;51107;47.652;19.016;2023-06-14T00:02:31;0.68;;;0.57;;
64682;SDS011;51107;47.652;19.016;2023-06-14T00:05:00;6.18;;;1.27;;
64682;SDS011;51107;47.652;19.016;2023-06-14T00:07:35;2.08;;;1.08;;
64682;SDS011;51107;47.652;19.016;2023-06-14T00:10:06;1.60;;;1.10;;
64682;SDS011;51107;47.652;19.016;2023-06-14T00:12:35;1.58;;;0.98;;
64682;SDS011;51107;47.652;19.016;2023-06-14T00:15:04;1.62;;;0.70;;
64682;SDS011;51107;47.652;19.016;2023-06-14T00:17:34;1.23;;;0.80;;
64682;SDS011;51107;47.652;19.016;2023-06-14T00:20:05;1.02;;;0.73;;
64682;SDS011;51107;47.652;19.016;2023-06-14T00:22:35;0.70;;;0.52;;
64682;SDS011;51107;47.652;19.016;2023-06-14T00:25:05;1.15;;;0.88;;
64682;SDS011;51107;47.652;19.016;2023-06-14T00:27:51;1.92;;;1.30;;
64682;SDS011;51107;47.652;19.016;2023-06-14T00:30:20;1.80;;;1.00;;
64682;SDS011;51107;47.652;19.016;2023-06-14T00:32:48;1.85;;;0.90;;
64682;SDS011;51107;47.652;19.016;2023-06-14T00:35:18;3.03;;;1.02;;
64682;SDS011;51107;47.652;19.016;2023-06-14T00:37:46;3.40;;;1.20;;
64682;SDS011;51107;47.652;19.016;2023-06-14T00:40:14;0.95;;;0.85;;
64682;SDS011;51107;47.652;19.016;2023-06-14T00:42:45;1.52;;;0.93;;
64682;SDS011;51107;47.652;19.016;2023-06-14T00:45:13;1.25;;;0.82;;
64682;SDS011;51107;47.652;19.016;2023-06-14T00:47:41;1.73;;;0.88;;
64682;SDS011;51107;47.652;19.016;2023-06-14T00:50:11;0.95;;;0.55;;
64682;SDS011;51107;47.652;19.016;2023-06-14T00:52:40;2.03;;;0.80;;
64682;SDS011;51107;47.652;19.016;2023-06-14T00:55:09;2.05;;;1.08;;
64682;SDS011;51107;47.652;19.016;2023-06-14T00:57:37;0.70;;;0.60;;
64682;SDS011;51107;47.652;19.016;2023-06-14T01:00:08;1.37;;;0.90;;
64682;SDS011;51107;47.652;19.016;2023-06-14T01:02:38;0.90;;;0.50;;
64682;SDS011;51107;47.652;19.016;2023-06-14T01:05:08;1.50;;;0.90;;
64682;SDS011;51107;47.652;19.016;2023-06-14T01:10:21;1.75;;;1.15;;
64682;SDS011;51107;47.652;19.016;2023-06-14T01:13:47;0.90;;;0.70;;
64682;SDS011;51107;47.652;19.016;2023-06-14T01:16:03;1.45;;;0.82;;
64682;SDS011;51107;47.652;19.016;2023-06-14T01:18:34;1.23;;;0.90;;
64682;SDS011;51107;47.652;19.016;2023-06-14T01:21:02;0.85;;;0.73;;
64682;SDS011;51107;47.652;19.016;2023-06-14T01:23:34;2.17;;;1.17;;
64682;SDS011;51107;47.652;19.016;2023-06-14T01:26:02;0.93;;;0.73;;
64682;SDS011;51107;47.652;19.016;2023-06-14T01:28:31;9.57;;;1.85;;
64682;SDS011;51107;47.652;19.016;2023-06-14T01:31:02;1.70;;;1.20;;
64682;SDS011;51107;47.652;19.016;2023-06-14T01:33:33;1.27;;;0.88;;
64682;SDS011;51107;47.652;19.016;2023-06-14T01:36:03;3.65;;;1.08;;
64682;SDS011;51107;47.652;19.016;2023-06-14T01:38:34;2.28;;;1.05;;
64682;SDS011;51107;47.652;19.016;2023-06-14T01:41:05;2.10;;;1.00;;
64682;SDS011;51107;47.652;19.016;2023-06-14T01:43:34;1.87;;;0.98;;
64682;SDS011;51107;47.652;19.016;2023-06-14T01:46:04;1.12;;;0.95;;
64682;SDS011;51107;47.652;19.016;2023-06-14T01:48:34;1.00;;;0.80;;
64682;SDS011;51107;47.652;19.016;2023-06-14T01:51:03;0.77;;;0.62;;
64682;SDS011;51107;47.652;19.016;2023-06-14T01:53:32;0.95;;;0.70;;
64682;SDS011;51107;47.652;19.016;2023-06-14T01:56:00;3.95;;;1.33;;
64682;SDS011;51107;47.652;19.016;2023-06-14T01:58:30;1.50;;;1.00;;
64682;SDS011;51107;47.652;19.016;2023-06-14T02:00:59;1.87;;;0.93;;
64682;SDS011;51107;47.652;19.016;2023-06-14T02:03:29;2.20;;;1.15;;
64682;SDS011;51107;47.652;19.016;2023-06-14T02:05:58;1.10;;;0.80;;
64682;SDS011;51107;47.652;19.016;2023-06-14T02:08:26;3.53;;;1.30;;
64682;SDS011;51107;47.652;19.016;2023-06-14T02:10:55;0.80;;;0.80;;
64682;SDS011;51107;47.652;19.016;2023-06-14T02:13:23;1.23;;;1.00;;
64682;SDS011;51107;47.652;19.016;2023-06-14T02:15:51;2.60;;;0.95;;
64682;SDS011;51107;47.652;19.016;2023-06-14T02:18:23;1.55;;;1.08;;
64682;SDS011;51107;47.652;19.016;2023-06-14T02:20:51;1.83;;;1.02;;
64682;SDS011;51107;47.652;19.016;2023-06-14T02:23:20;1.35;;;1.15;;
64682;SDS011;51107;47.652;19.016;2023-06-14T02:25:48;1.95;;;1.12;;
64682;SDS011;51107;47.652;19.016;2023-06-14T02:28:17;1.00;;;0.77;;
64682;SDS011;51107;47.652;19.016;2023-06-14T02:30:45;1.85;;;0.95;;
64682;SDS011;51107;47.652;19.016;2023-06-14T02:33:13;1.48;;;0.80;;
64682;SDS011;51107;47.652;19.016;2023-06-14T02:35:42;1.73;;;0.93;;
64682;SDS011;51107;47.652;19.016;2023-06-14T02:38:10;5.10;;;1.33;;
64682;SDS011;51107;47.652;19.016;2023-06-14T02:40:39;1.27;;;0.82;;
64682;SDS011;51107;47.652;19.016;2023-06-14T02:43:10;1.37;;;0.93;;
64682;SDS011;51107;47.652;19.016;2023-06-14T02:45:39;1.50;;;1.00;;
64682;SDS011;51107;47.652;19.016;2023-06-14T02:48:08;2.00;;;1.15;;
64682;SDS011;51107;47.652;19.016;2023-06-14T02:50:37;2.45;;;1.20;;
64682;SDS011;51107;47.652;19.016;2023-06-14T02:53:05;2.15;;;1.27;;
64682;SDS011;51107;47.652;19.016;2023-06-14T02:55:34;1.75;;;1.27;;
64682;SDS011;51107;47.652;19.016;2023-06-14T02:58:08;1.85;;;1.12;;
64682;SDS011;51107;47.652;19.016;2023-06-14T03:00:37;5.72;;;1.87;;
64682;SDS011;51107;47.652;19.016;2023-06-14T03:03:07;3.70;;;1.42;;
64682;SDS011;51107;47.652;19.016;2023-06-14T03:05:44;1.23;;;1.00;;
64682;SDS011;51107;47.652;19.016;2023-06-14T03:08:16;2.25;;;1.33;;
64682;SDS011;51107;47.652;19.016;2023-06-14T03:10:47;1.85;;;1.25;;
64682;SDS011;51107;47.652;19.016;2023-06-14T03:13:16;3.80;;;1.98;;
64682;SDS011;51107;47.652;19.016;2023-06-14T03:15:44;2.87;;;1.52;;
64682;SDS011;51107;47.652;19.016;2023-06-14T03:18:14;4.80;;;1.60;;
64682;SDS011;51107;47.652;19.016;2023-06-14T03:20:43;1.75;;;1.27;;
64682;SDS011;51107;47.652;19.016;2023-06-14T03:23:13;3.15;;;1.77;;
64682;SDS011;51107;47.652;19.016;2023-06-14T03:25:42;2.40;;;1.42;;
64682;SDS011;51107;47.652;19.016;2023-06-14T03:28:11;2.65;;;1.48;;
64682;SDS011;51107;47.652;19.016;2023-06-14T03:30:40;3.08;;;1.10;;
64682;SDS011;51107;47.652;19.016;2023-06-14T03:33:09;3.40;;;1.58;;
64682;SDS011;51107;47.652;19.016;2023-06-14T03:35:37;2.25;;;1.50;;
64682;SDS011;51107;47.652;19.016;2023-06-14T03:38:06;2.72;;;1.30;;
64682;SDS011;51107;47.652;19.016;2023-06-14T03:40:34;2.87;;;1.48;;
64682;SDS011;51107;47.652;19.016;2023-06-14T03:43:02;1.12;;;0.95;;
64682;SDS011;51107;47.652;19.016;2023-06-14T03:45:31;2.55;;;1.55;;
64682;SDS011;51107;47.652;19.016;2023-06-14T03:47:59;3.85;;;0.98;;
64682;SDS011;51107;47.652;19.016;2023-06-14T03:50:29;2.30;;;1.45;;
64682;SDS011;51107;47.652;19.016;2023-06-14T03:52:58;2.80;;;1.33;;
64682;SDS011;51107;47.652;19.016;2023-06-14T03:55:26;5.35;;;1.62;;
64682;SDS011;51107;47.652;19.016;2023-06-14T03:57:58;2.17;;;1.15;;
64682;SDS011;51107;47.652;19.016;2023-06-14T04:00:27;1.40;;;0.90;;
64682;SDS011;51107;47.652;19.016;2023-06-14T04:02:56;2.67;;;1.60;;
64682;SDS011;51107;47.652;19.016;2023-06-14T04:05:24;1.40;;;1.00;;
64682;SDS011;51107;47.652;19.016;2023-06-14T04:07:54;1.58;;;1.23;;
64682;SDS011;51107;47.652;19.016;2023-06-14T04:10:25;2.92;;;1.62;;
64682;SDS011;51107;47.652;19.016;2023-06-14T04:12:54;2.17;;;1.23;;
64682;SDS011;51107;47.652;19.016;2023-06-14T04:15:22;1.90;;;1.20;;
64682;SDS011;51107;47.652;19.016;2023-06-14T04:17:51;9.90;;;1.40;;
64682;SDS011;51107;47.652;19.016;2023-06-14T04:20:20;3.37;;;1.73;;
64682;SDS011;51107;47.652;19.016;2023-06-14T04:22:49;2.70;;;1.50;;
64682;SDS011;51107;47.652;19.016;2023-06-14T04:25:18;4.50;;;1.92;;
64682;SDS011;51107;47.652;19.016;2023-06-14T04:27:51;1.73;;;1.37;;
64682;SDS011;51107;47.652;19.016;2023-06-14T04:30:20;4.50;;;1.50;;
64682;SDS011;51107;47.652;19.016;2023-06-14T04:32:54;2.63;;;1.33;;
64682;SDS011;51107;47.652;19.016;2023-06-14T04:35:24;1.08;;;0.98;;
64682;SDS011;51107;47.652;19.016;2023-06-14T04:37:53;6.37;;;1.60;;
64682;SDS011;51107;47.652;19.016;2023-06-14T04:40:21;4.78;;;1.60;;
64682;SDS011;51107;47.652;19.016;2023-06-14T04:42:50;1.95;;;1.40;;
64682;SDS011;51107;47.652;19.016;2023-06-14T04:45:18;3.60;;;1.33;;
64682;SDS011;51107;47.652;19.016;2023-06-14T04:47:47;4.28;;;2.05;;
64682;SDS011;51107;47.652;19.016;2023-06-14T04:50:16;2.33;;;1.48;;
64682;SDS011;51107;47.652;19.016;2023-06-14T04:52:45;3.28;;;1.98;;
64682;SDS011;51107;47.652;19.016;2023-06-14T04:55:14;1.80;;;1.52;;
64682;SDS011;51107;47.652;19.016;2023-06-14T04:57:43;2.40;;;1.62;;
64682;SDS011;51107;47.652;19.016;2023-06-14T05:00:13;2.50;;;1.60;;
64682;SDS011;51107;47.652;19.016;2023-06-14T05:02:43;1.85;;;1.27;;
64682;SDS011;51107;47.652;19.016;2023-06-14T05:05:12;3.08;;;1.48;;
64682;SDS011;51107;47.652;19.016;2023-06-14T05:07:40;4.30;;;1.58;;
64682;SDS011;51107;47.652;19.016;2023-06-14T05:10:09;2.30;;;1.33;;
64682;SDS011;51107;47.652;19.016;2023-06-14T05:12:38;3.17;;;1.62;;
64682;SDS011;51107;47.652;19.016;2023-06-14T05:15:08;1.80;;;1.40;;
64682;SDS011;51107;47.652;19.016;2023-06-14T05:17:39;3.42;;;1.62;;
64682;SDS011;51107;47.652;19.016;2023-06-14T05:20:08;5.30;;;1.87;;
64682;SDS011;51107;47.652;19.016;2023-06-14T05:22:38;2.70;;;1.92;;
64682;SDS011;51107;47.652;19.016;2023-06-14T05:25:06;2.35;;;1.60;;
64682;SDS011;51107;47.652;19.016;2023-06-14T05:27:35;2.80;;;1.37;;
64682;SDS011;51107;47.652;19.016;2023-06-14T05:30:05;3.45;;;1.90;;
64682;SDS011;51107;47.652;19.016;2023-06-14T05:32:34;3.62;;;1.70;;
64682;SDS011;51107;47.652;19.016;2023-06-14T05:35:04;2.83;;;1.48;;
64682;SDS011;51107;47.652;19.016;2023-06-14T05:37:33;2.12;;;1.23;;
64682;SDS011;51107;47.652;19.016;2023-06-14T05:40:02;4.45;;;2.30;;
64682;SDS011;51107;47.652;19.016;2023-06-14T05:42:33;2.85;;;1.85;;
64682;SDS011;51107;47.652;19.016;2023-06-14T05:45:01;2.40;;;1.77;;
64682;SDS011;51107;47.652;19.016;2023-06-14T05:47:29;3.22;;;2.17;;
64682;SDS011;51107;47.652;19.016;2023-06-14T05:49:58;2.47;;;1.48;;
64682;SDS011;51107;47.652;19.016;2023-06-14T05:52:27;2.60;;;1.77;;
64682;SDS011;51107;47.652;19.016;2023-06-14T05:54:55;2.25;;;1.73;;
64682;SDS011;51107;47.652;19.016;2023-06-14T05:57:24;3.58;;;1.80;;
64682;SDS011;51107;47.652;19.016;2023-06-14T05:59:52;4.55;;;2.12;;
64682;SDS011;51107;47.652;19.016;2023-06-14T06:02:21;2.97;;;2.00;;
64682;SDS011;51107;47.652;19.016;2023-06-14T06:04:50;2.75;;;1.90;;
64682;SDS011;51107;47.652;19.016;2023-06-14T06:07:18;4.35;;;1.60;;
64682;SDS011;51107;47.652;19.016;2023-06-14T06:09:46;7.03;;;2.20;;
64682;SDS011;51107;47.652;19.016;2023-06-14T06:12:15;4.68;;;2.33;;
64682;SDS011;51107;47.652;19.016;2023-06-14T06:14:44;2.92;;;1.45;;
64682;SDS011;51107;47.652;19.016;2023-06-14T06:17:12;2.17;;;1.65;;
64682;SDS011;51107;47.652;19.016;2023-06-14T06:19:41;5.28;;;2.08;;
64682;SDS011;51107;47.652;19.016;2023-06-14T06:22:09;3.33;;;1.52;;
64682;SDS011;51107;47.652;19.016;2023-06-14T06:24:37;2.40;;;1.55;;
64682;SDS011;51107;47.652;19.016;2023-06-14T06:27:06;2.65;;;1.50;;
64682;SDS011;51107;47.652;19.016;2023-06-14T06:29:38;3.05;;;1.40;;
64682;SDS011;51107;47.652;19.016;2023-06-14T06:32:07;2.62;;;1.52;;
64682;SDS011;51107;47.652;19.016;2023-06-14T06:34:35;3.80;;;1.90;;
64682;SDS011;51107;47.652;19.016;2023-06-14T06:37:03;4.10;;;1.52;;
64682;SDS011;51107;47.652;19.016;2023-06-14T06:39:32;4.15;;;2.00;;
64682;SDS011;51107;47.652;19.016;2023-06-14T06:42:00;5.05;;;2.33;;
64682;SDS011;51107;47.652;19.016;2023-06-14T06:44:32;2.42;;;1.62;;
64682;SDS011;51107;47.652;19.016;2023-06-14T06:47:01;3.42;;;1.80;;
64682;SDS011;51107;47.652;19.016;2023-06-14T06:49:30;3.37;;;1.67;;
64682;SDS011;51107;47.652;19.016;2023-06-14T06:54:33;3.83;;;1.95;;
64682;SDS011;51107;47.652;19.016;2023-06-14T06:57:02;2.58;;;1.85;;
64682;SDS011;51107;47.652;19.016;2023-06-14T06:59:31;6.30;;;1.98;;
64682;SDS011;51107;47.652;19.016;2023-06-14T07:02:00;3.80;;;1.67;;
64682;SDS011;51107;47.652;19.016;2023-06-14T07:04:28;2.50;;;1.65;;
64682;SDS011;51107;47.652;19.016;2023-06-14T07:06:57;2.60;;;1.60;;
64682;SDS011;51107;47.652;19.016;2023-06-14T07:09:25;2.92;;;1.87;;
64682;SDS011;51107;47.652;19.016;2023-06-14T07:11:54;2.65;;;1.60;;
64682;SDS011;51107;47.652;19.016;2023-06-14T07:14:22;3.15;;;1.60;;
64682;SDS011;51107;47.652;19.016;2023-06-14T07:16:51;3.75;;;2.20;;
64682;SDS011;51107;47.652;19.016;2023-06-14T07:19:19;5.72;;;2.20;;
64682;SDS011;51107;47.652;19.016;2023-06-14T07:21:48;4.85;;;2.28;;
64682;SDS011;51107;47.652;19.016;2023-06-14T07:24:18;2.95;;;2.10;;
64682;SDS011;51107;47.652;19.016;2023-06-14T07:26:48;3.50;;;2.10;;
64682;SDS011;51107;47.652;19.016;2023-06-14T07:29:17;4.78;;;2.42;;
64682;SDS011;51107;47.652;19.016;2023-06-14T07:31:45;3.15;;;1.35;;
64682;SDS011;51107;47.652;19.016;2023-06-14T07:34:14;4.87;;;2.03;;
64682;SDS011;51107;47.652;19.016;2023-06-14T07:36:42;5.90;;;2.22;;
64682;SDS011;51107;47.652;19.016;2023-06-14T07:39:12;4.80;;;2.50;;
64682;SDS011;51107;47.652;19.016;2023-06-14T07:41:41;4.18;;;2.42;;
64682;SDS011;51107;47.652;19.016;2023-06-14T07:44:09;3.35;;;1.90;;
64682;SDS011;51107;47.652;19.016;2023-06-14T07:46:38;3.58;;;1.87;;
64682;SDS011;51107;47.652;19.016;2023-06-14T07:49:06;3.70;;;2.05;;
64682;SDS011;51107;47.652;19.016;2023-06-14T07:51:35;2.87;;;1.45;;
64682;SDS011;51107;47.652;19.016;2023-06-14T07:54:03;4.90;;;2.20;;
64682;SDS011;51107;47.652;19.016;2023-06-14T07:56:32;3.85;;;1.98;;
64682;SDS011;51107;47.652;19.016;2023-06-14T07:59:00;5.03;;;2.03;;
64682;SDS011;51107;47.652;19.016;2023-06-14T08:01:29;8.27;;;2.10;;
64682;SDS011;51107;47.652;19.016;2023-06-14T08:03:57;5.55;;;2.00;;
64682;SDS011;51107;47.652;19.016;2023-06-14T08:06:25;2.60;;;1.75;;
64682;SDS011;51107;47.652;19.016;2023-06-14T08:08:54;3.22;;;1.80;;
64682;SDS011;51107;47.652;19.016;2023-06-14T08:11:22;3.92;;;1.73;;
64682;SDS011;51107;47.652;19.016;2023-06-14T08:13:51;2.72;;;1.40;;
64682;SDS011;51107;47.652;19.016;2023-06-14T08:16:20;3.55;;;1.95;;
64682;SDS011;51107;47.652;19.016;2023-06-14T08:18:49;2.97;;;1.75;;
64682;SDS011;51107;47.652;19.016;2023-06-14T08:21:17;2.75;;;1.70;;
64682;SDS011;51107;47.652;19.016;2023-06-14T08:23:46;2.67;;;1.50;;
64682;SDS011;51107;47.652;19.016;2023-06-14T08:26:15;5.32;;;1.92;;
64682;SDS011;51107;47.652;19.016;2023-06-14T08:28:43;3.12;;;1.52;;
64682;SDS011;51107;47.652;19.016;2023-06-14T08:31:12;2.83;;;1.58;;
64682;SDS011;51107;47.652;19.016;2023-06-14T08:33:41;4.25;;;2.28;;
64682;SDS011;51107;47.652;19.016;2023-06-14T08:36:11;2.80;;;1.50;;
64682;SDS011;51107;47.652;19.016;2023-06-14T08:38:40;6.10;;;1.95;;
64682;SDS011;51107;47.652;19.016;2023-06-14T08:41:08;2.83;;;1.65;;
64682;SDS011;51107;47.652;19.016;2023-06-14T08:43:41;3.35;;;1.80;;
64682;SDS011;51107;47.652;19.016;2023-06-14T08:46:09;3.70;;;1.60;;
64682;SDS011;51107;47.652;19.016;2023-06-14T08:48:39;2.75;;;1.42;;
64682;SDS011;51107;47.652;19.016;2023-06-14T08:51:08;2.95;;;1.55;;
64682;SDS011;51107;47.652;19.016;2023-06-14T08:53:39;2.92;;;1.73;;
64682;SDS011;51107;47.652;19.016;2023-06-14T08:56:09;4.45;;;2.00;;
64682;SDS011;51107;47.652;19.016;2023-06-14T08:58:44;8.02;;;1.60;;
64682;SDS011;51107;47.652;19.016;2023-06-14T09:01:15;3.00;;;1.33;;
64682;SDS011;51107;47.652;19.016;2023-06-14T09:03:45;3.67;;;1.95;;
64682;SDS011;51107;47.652;19.016;2023-06-14T09:06:16;2.47;;;1.73;;
64682;SDS011;51107;47.652;19.016;2023-06-14T09:08:47;4.12;;;1.55;;
64682;SDS011;51107;47.652;19.016;2023-06-14T09:11:18;3.17;;;1.70;;
64682;SDS011;51107;47.652;19.016;2023-06-14T09:13:48;2.67;;;1.50;;
64682;SDS011;51107;47.652;19.016;2023-06-14T09:16:17;4.85;;;1.85;;
64682;SDS011;51107;47.652;19.016;2023-06-14T09:18:46;2.10;;;1.60;;
64682;SDS011;51107;47.652;19.016;2023-06-14T09:21:19;3.25;;;1.55;;
64682;SDS011;51107;47.652;19.016;2023-06-14T09:23:48;4.03;;;1.95;;
64682;SDS011;51107;47.652;19.016;2023-06-14T09:26:17;2.10;;;1.30;;
64682;SDS011;51107;47.652;19.016;2023-06-14T09:28:51;2.67;;;1.50;;
64682;SDS011;51107;47.652;19.016;2023-06-14T09:31:20;2.45;;;1.37;;
64682;SDS011;51107;47.652;19.016;2023-06-14T09:33:49;4.80;;;2.12;;
64682;SDS011;51107;47.652;19.016;2023-06-14T09:36:22;2.25;;;1.50;;
64682;SDS011;51107;47.652;19.016;2023-06-14T09:38:51;2.15;;;1.30;;
64682;SDS011;51107;47.652;19.016;2023-06-14T09:41:34;3.60;;;1.55;;
64682;SDS011;51107;47.652;19.016;2023-06-14T09:44:04;2.33;;;1.10;;
64682;SDS011;51107;47.652;19.016;2023-06-14T09:46:38;2.83;;;1.58;;
64682;SDS011;51107;47.652;19.016;2023-06-14T09:49:07;4.30;;;1.35;;
64682;SDS011;51107;47.652;19.016;2023-06-14T09:51:36;2.20;;;1.45;;
64682;SDS011;51107;47.652;19.016;2023-06-14T09:54:16;1.02;;;0.90;;
64682;SDS011;51107;47.652;19.016;2023-06-14T09:56:48;5.40;;;0.95;;
64682;SDS011;51107;47.652;19.016;2023-06-14T09:59:23;2.05;;;1.00;;
64682;SDS011;51107;47.652;19.016;2023-06-14T10:02:01;1.17;;;0.95;;
64682;SDS011;51107;47.652;19.016;2023-06-14T10:04:36;1.52;;;1.08;;
64682;SDS011;51107;47.652;19.016;2023-06-14T10:07:06;1.15;;;0.80;;
64682;SDS011;51107;47.652;19.016;2023-06-14T10:09:36;1.77;;;0.90;;
64682;SDS011;51107;47.652;19.016;2023-06-14T10:12:04;1.85;;;1.00;;
64682;SDS011;51107;47.652;19.016;2023-06-14T10:14:33;1.92;;;0.90;;
64682;SDS011;51107;47.652;19.016;2023-06-14T10:17:08;1.87;;;1.30;;
64682;SDS011;51107;47.652;19.016;2023-06-14T10:19:42;1.55;;;1.12;;
64682;SDS011;51107;47.652;19.016;2023-06-14T10:22:35;2.25;;;1.15;;
64682;SDS011;51107;47.652;19.016;2023-06-14T10:25:25;2.72;;;1.40;;
64682;SDS011;51107;47.652;19.016;2023-06-14T10:31:26;3.17;;;1.20;;
64682;SDS011;51107;47.652;19.016;2023-06-14T10:33:49;1.67;;;1.10;;
64682;SDS011;51107;47.652;19.016;2023-06-14T10:36:29;2.33;;;1.33;;
64682;SDS011;51107;47.652;19.016;2023-06-14T10:39:17;5.35;;;2.03;;
64682;SDS011;51107;47.652;19.016;2023-06-14T10:41:54;1.75;;;1.10;;
64682;SDS011;51107;47.652;19.016;2023-06-14T10:46:52;1.55;;;1.10;;
64682;SDS011;51107;47.652;19.016;2023-06-14T10:49:36;1.33;;;1.00;;
64682;SDS011;51107;47.652;19.016;2023-06-14T10:52:16;2.30;;;1.17;;
64682;SDS011;51107;47.652;19.016;2023-06-14T10:54:56;2.15;;;1.35;;
64682;SDS011;51107;47.652;19.016;2023-06-14T10:57:24;1.30;;;1.00;;
64682;SDS011;51107;47.652;19.016;2023-06-14T10:59:53;2.12;;;1.23;;
64682;SDS011;51107;47.652;19.016;2023-06-14T11:02:46;1.70;;;1.05;;
64682;SDS011;51107;47.652;19.016;2023-06-14T11:05:21;1.60;;;1.17;;
64682;SDS011;51107;47.652;19.016;2023-06-14T11:13:07;1.73;;;1.20;;
64682;SDS011;51107;47.652;19.016;2023-06-14T11:15:36;2.03;;;1.23;;
64682;SDS011;51107;47.652;19.016;2023-06-14T11:18:07;2.25;;;1.20;;
64682;SDS011;51107;47.652;19.016;2023-06-14T11:20:38;3.47;;;1.48;;
64682;SDS011;51107;47.652;19.016;2023-06-14T11:23:08;1.98;;;1.25;;
64682;SDS011;51107;47.652;19.016;2023-06-14T11:25:36;1.37;;;0.85;;
64682;SDS011;51107;47.652;19.016;2023-06-14T11:28:05;2.65;;;1.35;;
64682;SDS011;51107;47.652;19.016;2023-06-14T11:30:33;3.55;;;1.10;;
64682;SDS011;51107;47.652;19.016;2023-06-14T11:33:01;1.40;;;0.93;;
64682;SDS011;51107;47.652;19.016;2023-06-14T11:35:30;1.85;;;0.75;;
64682;SDS011;51107;47.652;19.016;2023-06-14T11:37:58;1.87;;;1.20;;
64682;SDS011;51107;47.652;19.016;2023-06-14T11:40:26;6.10;;;1.40;;
64682;SDS011;51107;47.652;19.016;2023-06-14T11:43:02;1.85;;;1.23;;
64682;SDS011;51107;47.652;19.016;2023-06-14T11:45:30;1.17;;;0.80;;
64682;SDS011;51107;47.652;19.016;2023-06-14T11:47:59;2.12;;;1.00;;
64682;SDS011;51107;47.652;19.016;2023-06-14T11:50:27;2.37;;;1.35;;
64682;SDS011;51107;47.652;19.016;2023-06-14T11:52:57;1.35;;;0.73;;
64682;SDS011;51107;47.652;19.016;2023-06-14T11:55:38;1.23;;;1.00;;
64682;SDS011;51107;47.652;19.016;2023-06-14T11:58:08;0.77;;;0.77;;
64682;SDS011;51107;47.652;19.016;2023-06-14T12:00:38;0.82;;;0.80;;
64682;SDS011;51107;47.652;19.016;2023-06-14T12:03:08;1.45;;;0.98;;
64682;SDS011;51107;47.652;19.016;2023-06-14T12:05:36;2.47;;;1.08;;
64682;SDS011;51107;47.652;19.016;2023-06-14T12:08:05;0.95;;;0.75;;
64682;SDS011;51107;47.652;19.016;2023-06-14T12:10:39;1.10;;;0.80;;
64682;SDS011;51107;47.652;19.016;2023-06-14T12:13:09;1.40;;;0.90;;
64682;SDS011;51107;47.652;19.016;2023-06-14T12:15:38;1.42;;;0.95;;
64682;SDS011;51107;47.652;19.016;2023-06-14T12:18:06;0.70;;;0.62;;
64682;SDS011;51107;47.652;19.016;2023-06-14T12:20:36;1.95;;;1.10;;
64682;SDS011;51107;47.652;19.016;2023-06-14T12:23:07;1.30;;;0.90;;
64682;SDS011;51107;47.652;19.016;2023-06-14T12:25:37;1.40;;;0.90;;
64682;SDS011;51107;47.652;19.016;2023-06-14T12:28:08;3.00;;;1.02;;
64682;SDS011;51107;47.652;19.016;2023-06-14T12:30:37;1.05;;;0.77;;
64682;SDS011;51107;47.652;19.016;2023-06-14T12:33:06;0.82;;;0.70;;
64682;SDS011;51107;47.652;19.016;2023-06-14T12:35:36;0.88;;;0.60;;
64682;SDS011;51107;47.652;19.016;2023-06-14T12:38:04;1.02;;;0.77;;
64682;SDS011;51107;47.652;19.016;2023-06-14T12:40:32;1.60;;;1.08;;
64682;SDS011;51107;47.652;19.016;2023-06-14T12:43:03;3.25;;;1.02;;
64682;SDS011;51107;47.652;19.016;2023-06-14T12:45:32;3.78;;;0.95;;
64682;SDS011;51107;47.652;19.016;2023-06-14T12:48:00;1.77;;;1.08;;
64682;SDS011;51107;47.652;19.016;2023-06-14T12:50:30;1.52;;;0.93;;
64682;SDS011;51107;47.652;19.016;2023-06-14T12:52:59;5.20;;;1.23;;
64682;SDS011;51107;47.652;19.016;2023-06-14T12:55:27;1.67;;;1.00;;
64682;SDS011;51107;47.652;19.016;2023-06-14T12:57:55;2.37;;;1.20;;
64682;SDS011;51107;47.652;19.016;2023-06-14T13:00:24;2.30;;;1.20;;
64682;SDS011;51107;47.652;19.016;2023-06-14T13:02:53;2.12;;;0.93;;
64682;SDS011;51107;47.652;19.016;2023-06-14T13:05:22;1.02;;;0.80;;
64682;SDS011;51107;47.652;19.016;2023-06-14T13:07:51;1.58;;;1.10;;
64682;SDS011;51107;47.652;19.016;2023-06-14T13:10:19;1.08;;;0.88;;
64682;SDS011;51107;47.652;19.016;2023-06-14T13:12:47;0.98;;;0.82;;
64682;SDS011;51107;47.652;19.016;2023-06-14T13:15:16;1.23;;;0.82;;
64682;SDS011;51107;47.652;19.016;2023-06-14T13:17:44;1.92;;;1.20;;
64682;SDS011;51107;47.652;19.016;2023-06-14T13:20:16;2.15;;;1.17;;
64682;SDS011;51107;47.652;19.016;2023-06-14T13:22:47;2.83;;;1.30;;
64682;SDS011;51107;47.652;19.016;2023-06-14T13:25:15;3.53;;;1.40;;
64682;SDS011;51107;47.652;19.016;2023-06-14T13:27:44;1.85;;;1.12;;
64682;SDS011;51107;47.652;19.016;2023-06-14T13:30:12;1.90;;;1.20;;
64682;SDS011;51107;47.652;19.016;2023-06-14T13:32:42;2.55;;;1.40;;
64682;SDS011;51107;47.652;19.016;2023-06-14T13:35:17;1.70;;;1.23;;
64682;SDS011;51107;47.652;19.016;2023-06-14T13:37:47;1.73;;;1.10;;
64682;SDS011;51107;47.652;19.016;2023-06-14T13:40:15;4.93;;;1.02;;
64682;SDS011;51107;47.652;19.016;2023-06-14T13:42:45;1.62;;;1.00;;
64682;SDS011;51107;47.652;19.016;2023-06-14T13:45:15;1.27;;;1.00;;
64682;SDS011;51107;47.652;19.016;2023-06-14T13:47:44;1.75;;;1.10;;
64682;SDS011;51107;47.652;19.016;2023-06-14T13:50:15;6.15;;;1.00;;
64682;SDS011;51107;47.652;19.016;2023-06-14T13:52:44;2.10;;;1.10;;
64682;SDS011;51107;47.652;19.016;2023-06-14T13:55:13;1.77;;;1.15;;
64682;SDS011;51107;47.652;19.016;2023-06-14T13:57:41;2.10;;;1.23;;
64682;SDS011;51107;47.652;19.016;2023-06-14T14:00:10;1.70;;;1.20;;
64682;SDS011;51107;47.652;19.016;2023-06-14T14:02:38;1.90;;;1.20;;
64682;SDS011;51107;47.652;19.016;2023-06-14T14:05:10;1.27;;;0.93;;
64682;SDS011;51107;47.652;19.016;2023-06-14T14:07:39;2.15;;;1.35;;
64682;SDS011;51107;47.652;19.016;2023-06-14T14:10:07;0.85;;;0.75;;
64682;SDS011;51107;47.652;19.016;2023-06-14T14:12:36;1.12;;;0.93;;
64682;SDS011;51107;47.652;19.016;2023-06-14T14:15:06;1.52;;;1.10;;
64682;SDS011;51107;47.652;19.016;2023-06-14T14:20:09;1.08;;;0.80;;
64682;SDS011;51107;47.652;19.016;2023-06-14T14:22:41;1.48;;;1.05;;
64682;SDS011;51107;47.652;19.016;2023-06-14T14:25:10;1.27;;;0.93;;
64682;SDS011;51107;47.652;19.016;2023-06-14T14:27:38;1.35;;;1.00;;
64682;SDS011;51107;47.652;19.016;2023-06-14T14:30:08;1.83;;;1.10;;
64682;SDS011;51107;47.652;19.016;2023-06-14T14:32:36;1.17;;;0.95;;
64682;SDS011;51107;47.652;19.016;2023-06-14T14:35:05;4.32;;;1.65;;
64682;SDS011;51107;47.652;19.016;2023-06-14T14:37:34;1.87;;;1.10;;
64682;SDS011;51107;47.652;19.016;2023-06-14T14:40:02;2.05;;;1.23;;
64682;SDS011;51107;47.652;19.016;2023-06-14T14:42:31;1.60;;;0.93;;
64682;SDS011;51107;47.652;19.016;2023-06-14T14:45:00;1.15;;;1.00;;
64682;SDS011;51107;47.652;19.016;2023-06-14T14:47:28;1.35;;;0.90;;
64682;SDS011;51107;47.652;19.016;2023-06-14T14:49:56;2.12;;;1.10;;
64682;SDS011;51107;47.652;19.016;2023-06-14T14:52:25;3.75;;;1.20;;
64682;SDS011;51107;47.652;19.016;2023-06-14T14:54:54;6.57;;;1.23;;
64682;SDS011;51107;47.652;19.016;2023-06-14T14:57:24;2.30;;;1.33;;
64682;SDS011;51107;47.652;19.016;2023-06-14T14:59:52;1.30;;;0.82;;
64682;SDS011;51107;47.652;19.016;2023-06-14T15:02:21;1.60;;;1.30;;
64682;SDS011;51107;47.652;19.016;2023-06-14T15:04:51;0.98;;;0.80;;
64682;SDS011;51107;47.652;19.016;2023-06-14T15:07:19;1.23;;;0.85;;